createdAt,value
2022-11-08T00:02:36.837Z,973.69
2022-11-08T00:08:08.042Z,973.67
2022-11-08T00:13:39.811Z,973.45
2022-11-08T00:19:11.780Z,973.11
2022-11-08T00:24:43.156Z,973.39
2022-11-08T00:30:14.919Z,973.38
2022-11-08T00:35:46.591Z,973.47
2022-11-08T00:41:18.871Z,973.51
2022-11-08T00:46:50.123Z,973.7
2022-11-08T00:52:26.046Z,973.51
2022-11-08T00:58:01.575Z,974.06
2022-11-08T01:03:29.555Z,973.69
2022-11-08T01:09:01.362Z,973.82
2022-11-08T01:14:33.259Z,973.74
2022-11-08T01:20:04.832Z,973.38
2022-11-08T01:25:36.711Z,973.32
2022-11-08T01:31:08.412Z,973.47
2022-11-08T01:36:40.456Z,973.77
2022-11-08T01:42:11.864Z,973.81
2022-11-08T01:47:43.547Z,973.6
2022-11-08T01:53:19.560Z,973.29
2022-11-08T01:58:51.424Z,973.03
2022-11-08T02:04:23.292Z,973.12
2022-11-08T02:09:55.132Z,972.84
2022-11-08T02:15:26.433Z,972.6
2022-11-08T02:20:58.027Z,972.58
2022-11-08T02:26:30.020Z,972.28
2022-11-08T02:32:01.819Z,972.06
2022-11-08T02:37:33.299Z,972.03
2022-11-08T02:43:05.095Z,971.76
2022-11-08T02:48:36.659Z,971.74
2022-11-08T02:54:12.683Z,971.72
2022-11-08T02:59:44.710Z,971.79
2022-11-08T03:05:16.495Z,971.51
2022-11-08T03:10:47.836Z,971.81
2022-11-08T03:16:19.772Z,972.04
2022-11-08T03:21:51.599Z,971.64
2022-11-08T03:27:23.330Z,971.78
2022-11-08T03:32:54.757Z,972.16
2022-11-08T03:38:26.618Z,972.37
2022-11-08T03:43:58.358Z,972.61
2022-11-08T03:49:30.190Z,972.51
2022-11-08T03:55:06.330Z,972.42
2022-11-08T04:00:37.792Z,972.41
2022-11-08T04:06:09.776Z,972.28
2022-11-08T04:11:41.435Z,972.11
2022-11-08T04:17:13.029Z,972.0
2022-11-08T04:22:44.630Z,971.88
2022-11-08T04:28:17.591Z,971.8
2022-11-08T04:33:48.154Z,971.78
2022-11-08T04:39:19.945Z,971.5
2022-11-08T04:44:51.586Z,971.56
2022-11-08T04:50:23.745Z,971.56
2022-11-08T04:55:59.721Z,971.32
2022-11-08T05:01:31.852Z,971.47
2022-11-08T05:07:03.754Z,971.16
2022-11-08T05:12:34.722Z,971.31
2022-11-08T05:18:06.345Z,971.29
2022-11-08T05:23:38.257Z,971.31
2022-11-08T05:29:10.641Z,971.34
2022-11-08T05:34:41.942Z,971.29
2022-11-08T05:40:13.230Z,971.36
2022-11-08T05:45:44.871Z,971.23
2022-11-08T05:51:17.422Z,971.07
2022-11-08T05:56:52.798Z,970.98
2022-11-08T06:02:24.882Z,970.59
2022-11-08T06:07:56.854Z,970.6
2022-11-08T06:13:29.042Z,970.44
2022-11-08T06:18:59.873Z,970.82
2022-11-08T06:24:31.949Z,970.65
2022-11-08T06:30:03.169Z,970.99
2022-11-08T06:35:34.945Z,971.23
2022-11-08T06:41:06.626Z,971.1
2022-11-08T06:46:39.033Z,971.0
2022-11-08T06:52:10.186Z,970.81
2022-11-08T06:57:46.407Z,970.87
2022-11-08T07:03:18.930Z,971.47
2022-11-08T07:08:51.328Z,971.84
2022-11-08T07:14:21.542Z,972.03
2022-11-08T07:19:53.051Z,972.3
2022-11-08T07:25:24.947Z,972.69
2022-11-08T07:30:56.753Z,972.3
2022-11-08T07:36:28.216Z,972.87
2022-11-08T07:41:59.908Z,972.69
2022-11-08T07:47:31.749Z,973.25
2022-11-08T07:53:03.806Z,973.07
2022-11-08T07:58:42.079Z,972.83
2022-11-08T08:04:13.452Z,972.63
2022-11-08T08:09:44.967Z,972.76
2022-11-08T08:15:16.627Z,973.3
2022-11-08T08:20:48.318Z,973.28
2022-11-08T08:26:20.100Z,974.38
2022-11-08T08:31:51.900Z,974.98
2022-11-08T08:37:23.565Z,974.77
2022-11-08T08:42:55.587Z,975.65
2022-11-08T08:48:27.408Z,975.4
2022-11-08T08:53:58.942Z,976.24
2022-11-08T09:05:06.772Z,976.05
2022-11-08T09:10:38.284Z,976.02
2022-11-08T09:16:10.127Z,976.25
2022-11-08T09:21:41.902Z,976.72
2022-11-08T09:27:13.517Z,976.39
2022-11-08T09:33:03.087Z,976.92
2022-11-08T09:38:18.002Z,977.21
2022-11-08T09:43:48.655Z,976.86
2022-11-08T09:49:20.567Z,976.88
2022-11-08T09:54:51.996Z,976.72
2022-11-08T10:00:28.017Z,976.7
2022-11-08T10:05:59.762Z,976.78
2022-11-08T10:11:31.694Z,976.88
2022-11-08T10:17:03.447Z,976.7
2022-11-08T10:22:35.503Z,976.75
2022-11-08T10:28:06.734Z,976.77
2022-11-08T10:33:38.596Z,976.47
2022-11-08T10:39:10.236Z,976.89
2022-11-08T10:44:41.969Z,977.2
2022-11-08T10:50:13.801Z,977.11
2022-11-08T10:55:45.543Z,977.01
2022-11-08T11:01:22.102Z,976.77
2022-11-08T11:06:54.058Z,976.61
2022-11-08T11:12:25.001Z,976.66
2022-11-08T11:17:56.642Z,976.52
2022-11-08T11:23:28.573Z,976.47
2022-11-08T11:29:00.218Z,976.87
2022-11-08T11:34:31.603Z,977.04
2022-11-08T11:40:03.490Z,977.38
2022-11-08T11:45:35.221Z,977.2
2022-11-08T11:51:07.127Z,977.42
2022-11-08T11:56:38.680Z,977.27
2022-11-08T12:02:15.180Z,977.4
2022-11-08T12:07:46.797Z,976.94
2022-11-08T12:13:18.312Z,976.85
2022-11-08T12:18:51.517Z,977.0
2022-11-08T12:24:21.566Z,976.78
2022-11-08T12:29:53.401Z,976.54
2022-11-08T12:35:25.210Z,976.39
2022-11-08T12:40:56.935Z,976.08
2022-11-08T12:46:28.862Z,976.14
2022-11-08T12:52:00.465Z,975.65
2022-11-08T12:57:32.046Z,975.48
2022-11-08T13:03:08.465Z,975.31
2022-11-08T13:08:41.194Z,975.69
2022-11-08T13:14:11.901Z,975.73
2022-11-08T13:19:43.810Z,975.51
2022-11-08T13:25:15.485Z,975.25
2022-11-08T13:30:47.118Z,974.84
2022-11-08T13:36:19.041Z,974.82
2022-11-08T13:41:50.633Z,974.86
2022-11-08T13:47:22.285Z,974.68
2022-11-08T13:52:54.099Z,974.76
2022-11-08T13:58:25.961Z,974.41
2022-11-08T14:04:02.458Z,974.39
2022-11-08T14:09:34.626Z,974.2
2022-11-08T14:15:05.487Z,973.99
2022-11-08T14:20:37.235Z,973.9
2022-11-08T14:26:09.155Z,974.08
2022-11-08T14:31:40.471Z,973.64
2022-11-08T14:37:12.231Z,973.37
2022-11-08T14:42:43.977Z,973.68
2022-11-08T14:48:16.145Z,973.0
2022-11-08T14:53:47.718Z,973.01
2022-11-08T14:59:19.123Z,973.09
2022-11-08T15:04:57.180Z,972.8
2022-11-08T15:10:29.148Z,972.79
2022-11-08T15:16:01.078Z,972.62
2022-11-08T15:21:32.573Z,972.81
2022-11-08T15:27:04.206Z,972.29
2022-11-08T15:32:35.945Z,972.12
2022-11-08T15:38:07.591Z,971.88
2022-11-08T15:43:39.373Z,972.11
2022-11-08T15:49:11.364Z,972.09
2022-11-08T15:54:43.093Z,971.82
2022-11-08T16:00:15.026Z,971.71
2022-11-08T16:05:50.978Z,971.77
2022-11-08T16:11:22.848Z,971.78
2022-11-08T16:16:54.565Z,971.55
2022-11-08T16:22:26.514Z,971.16
2022-11-08T16:27:58.042Z,971.09
2022-11-08T16:33:29.535Z,970.64
2022-11-08T16:39:01.702Z,970.64
2022-11-08T16:44:32.967Z,970.18
2022-11-08T16:50:04.878Z,970.19
2022-11-08T16:55:36.306Z,970.01
2022-11-08T17:01:11.476Z,970.1
2022-11-08T17:06:44.406Z,970.24
2022-11-08T17:12:16.121Z,970.16
2022-11-08T17:17:47.705Z,970.29
2022-11-08T17:23:19.603Z,970.32
2022-11-08T17:28:51.278Z,970.41
2022-11-08T17:34:22.885Z,970.14
2022-11-08T17:39:54.981Z,970.44
2022-11-08T17:45:26.502Z,970.79
2022-11-08T17:50:58.336Z,970.16
2022-11-08T17:56:30.093Z,970.59
2022-11-08T18:02:02.230Z,970.61
2022-11-08T18:07:37.876Z,970.35
2022-11-08T18:13:09.486Z,970.02
2022-11-08T18:18:40.842Z,970.14
2022-11-08T18:24:12.859Z,970.08
2022-11-08T18:29:44.645Z,970.19
2022-11-08T18:35:16.465Z,969.82
2022-11-08T18:40:47.866Z,970.19
2022-11-08T18:46:19.866Z,970.35
2022-11-08T18:51:51.649Z,970.1
2022-11-08T18:57:23.492Z,970.08
2022-11-08T19:02:54.741Z,969.87
2022-11-08T19:08:31.083Z,969.72
2022-11-08T19:14:02.654Z,969.68
2022-11-08T19:19:34.620Z,969.68
2022-11-08T19:25:06.232Z,969.64
2022-11-08T19:30:37.997Z,969.65
2022-11-08T19:36:10.151Z,969.68
2022-11-08T19:41:41.524Z,969.88
2022-11-08T19:47:19.914Z,970.13
2022-11-08T19:52:51.523Z,970.15
2022-11-08T19:58:23.724Z,970.16
2022-11-08T20:03:55.129Z,969.75
2022-11-08T20:09:31.977Z,969.43
2022-11-08T20:15:02.953Z,969.52
2022-11-08T20:20:34.664Z,969.69
2022-11-08T20:26:06.396Z,969.72
2022-11-08T20:31:39.234Z,969.52
2022-11-08T20:37:09.785Z,969.64
2022-11-08T20:42:41.770Z,969.87
2022-11-08T20:48:15.490Z,969.73
2022-11-08T20:53:45.243Z,969.98
2022-11-08T20:59:16.710Z,970.12
2022-11-08T21:04:48.399Z,970.45
2022-11-08T21:10:44.596Z,970.11
2022-11-08T21:16:30.799Z,970.2
2022-11-08T21:21:27.975Z,970.03
2022-11-08T21:26:59.845Z,969.97
2022-11-08T21:32:31.702Z,970.18
2022-11-08T21:38:03.334Z,970.23
2022-11-08T21:43:34.842Z,970.15
2022-11-08T21:49:06.636Z,970.01
2022-11-08T21:54:38.963Z,969.94
2022-11-08T22:00:10.013Z,969.74
2022-11-08T22:05:42.024Z,969.74
2022-11-08T22:11:19.900Z,969.53
2022-11-08T22:16:51.735Z,969.44
2022-11-08T22:22:23.554Z,969.47
2022-11-08T22:27:55.130Z,969.64
2022-11-08T22:33:27.102Z,969.64
2022-11-08T22:38:58.738Z,969.68
2022-11-08T22:44:30.308Z,969.63
2022-11-08T22:50:02.178Z,969.57
2022-11-08T22:55:34.142Z,969.75
2022-11-08T23:01:05.809Z,970.11
2022-11-08T23:06:37.432Z,969.42
2022-11-08T23:12:14.070Z,968.81
2022-11-08T23:17:44.942Z,969.2
2022-11-08T23:23:17.535Z,969.49
2022-11-08T23:28:48.630Z,969.69
2022-11-08T23:34:20.115Z,969.78
2022-11-08T23:39:51.975Z,969.94
2022-11-08T23:45:25.107Z,970.06
2022-11-08T23:50:55.230Z,970.11
2022-11-08T23:56:26.961Z,970.19
